Time;durP1;ratioP1;P1;durP2;ratioP2;P2;SDS_P1;SDS_P2;PMS_P1;PMS_P2;Temp;Humidity;BMP_temperature;BMP_pressure;BME280_temperature;BME280_humidity;BME280_pressure;Samples;Min_cycle;Max_cycle;Signal;HPM_P1;HPM_P2
2023/04/19 00:00:34;;;;;;;13.52;10.48;;;10.10;99.90;;;;;;4954314;29;20114;-71
2023/04/19 00:03:00;;;;;;;13.27;10.20;;;10.20;99.90;;;;;;4952545;29;20058;-72
2023/04/19 00:05:27;;;;;;;14.10;10.65;;;10.10;99.90;;;;;;4952404;28;20035;-70
2023/04/19 00:07:52;;;;;;;13.07;9.82;;;10.10;99.90;;;;;;4960964;28;20431;-71
2023/04/19 00:10:18;;;;;;;13.07;9.75;;;10.00;99.90;;;;;;4954727;28;20031;-70
2023/04/19 00:12:43;;;;;;;14.73;10.88;;;10.00;99.90;;;;;;4953021;29;20040;-70
2023/04/19 00:15:09;;;;;;;14.73;10.32;;;9.90;99.90;;;;;;4953925;29;20032;-71
2023/04/19 00:17:35;;;;;;;15.20;10.85;;;9.90;99.90;;;;;;4953647;29;20039;-71
2023/04/19 00:20:00;;;;;;;15.43;10.82;;;9.90;99.90;;;;;;4953422;29;20055;-72
2023/04/19 00:22:26;;;;;;;13.38;10.60;;;10.10;99.90;;;;;;4953637;29;20028;-72
2023/04/19 00:24:52;;;;;;;15.20;10.70;;;10.10;99.90;;;;;;4948249;28;20023;-72
2023/04/19 00:27:18;;;;;;;17.15;12.07;;;10.20;99.90;;;;;;4953154;29;20031;-71
2023/04/19 00:29:44;;;;;;;14.05;11.15;;;10.10;99.90;;;;;;4953248;29;20031;-70
2023/04/19 00:32:09;;;;;;;16.90;11.05;;;10.00;99.90;;;;;;4953204;29;20082;-71
2023/04/19 00:34:35;;;;;;;18.25;11.85;;;10.00;99.90;;;;;;4953837;29;20038;-71
2023/04/19 00:37:03;;;;;;;16.17;11.80;;;9.90;99.90;;;;;;4951641;28;20420;-71
2023/04/19 00:39:29;;;;;;;15.82;11.43;;;9.90;99.90;;;;;;4953910;29;20034;-71
2023/04/19 00:41:56;;;;;;;14.50;10.70;;;9.90;99.90;;;;;;4950832;28;20385;-70
2023/04/19 00:44:22;;;;;;;17.73;11.40;;;9.80;99.90;;;;;;4950685;28;20036;-70
2023/04/19 00:46:48;;;;;;;18.15;12.00;;;9.80;99.90;;;;;;4952432;29;20036;-71
2023/04/19 00:49:14;;;;;;;15.32;11.45;;;9.90;99.90;;;;;;4953575;29;20487;-71
2023/04/19 00:51:40;;;;;;;16.85;11.52;;;9.90;99.90;;;;;;4952757;29;20023;-70
2023/04/19 00:54:07;;;;;;;18.67;12.30;;;9.90;99.90;;;;;;4953283;29;20119;-72
2023/04/19 00:56:33;;;;;;;17.42;12.55;;;9.90;99.90;;;;;;4952919;29;20038;-70
2023/04/19 00:58:59;;;;;;;16.80;12.10;;;9.80;99.90;;;;;;4953012;29;20034;-71
2023/04/19 01:01:25;;;;;;;17.98;11.20;;;9.70;99.90;;;;;;4949230;28;20043;-70
2023/04/19 01:03:50;;;;;;;16.85;11.88;;;9.70;99.90;;;;;;4952443;29;20407;-70
2023/04/19 01:06:16;;;;;;;16.65;12.38;;;9.70;99.90;;;;;;4953003;29;20128;-71
2023/04/19 01:08:42;;;;;;;20.58;12.60;;;9.70;99.90;;;;;;4952872;29;20039;-70
2023/04/19 01:11:08;;;;;;;18.67;12.35;;;9.70;99.90;;;;;;4952954;29;20102;-70
2023/04/19 01:13:33;;;;;;;17.42;11.93;;;9.70;99.90;;;;;;4953231;29;20432;-72
2023/04/19 01:15:59;;;;;;;14.98;11.18;;;9.70;99.90;;;;;;4952028;29;20122;-70
2023/04/19 01:18:31;;;;;;;17.95;12.23;;;9.60;99.90;;;;;;4947874;28;20388;-71
2023/04/19 01:21:00;;;;;;;20.52;13.60;;;9.60;99.90;;;;;;4957497;28;20039;-70
2023/04/19 01:23:25;;;;;;;16.88;12.38;;;9.70;99.90;;;;;;4953827;29;20534;-70
2023/04/19 01:25:51;;;;;;;17.08;12.55;;;9.70;99.90;;;;;;4952939;29;20031;-70
2023/04/19 01:28:17;;;;;;;19.92;13.57;;;9.80;99.90;;;;;;4952671;29;20111;-71
2023/04/19 01:30:42;;;;;;;20.00;12.80;;;9.80;99.90;;;;;;4952654;29;20513;-70
2023/04/19 01:33:08;;;;;;;17.23;13.20;;;9.70;99.90;;;;;;4953063;29;20090;-71
2023/04/19 01:35:34;;;;;;;20.33;14.18;;;9.70;99.90;;;;;;4953360;29;20058;-71
2023/04/19 01:38:00;;;;;;;21.52;13.48;;;9.70;99.90;;;;;;4948786;28;20043;-71
2023/04/19 01:40:26;;;;;;;20.77;13.07;;;9.70;99.90;;;;;;4953179;29;20042;-71
2023/04/19 01:42:52;;;;;;;19.88;12.88;;;9.60;99.90;;;;;;4951682;29;20024;-72
2023/04/19 01:45:18;;;;;;;20.65;14.50;;;9.60;99.90;;;;;;4953313;29;20034;-72
2023/04/19 01:47:43;;;;;;;20.27;13.43;;;9.60;99.90;;;;;;4951976;28;20054;-69
2023/04/19 01:50:09;;;;;;;19.23;13.80;;;9.70;99.90;;;;;;4949999;29;20143;-71
2023/04/19 01:52:35;;;;;;;19.77;13.73;;;9.60;99.90;;;;;;4952518;29;20033;-71
2023/04/19 01:55:00;;;;;;;19.38;13.50;;;9.60;99.90;;;;;;4946156;28;20040;-71
2023/04/19 01:57:26;;;;;;;20.23;14.60;;;9.60;99.90;;;;;;4952130;29;20106;-71
2023/04/19 01:59:54;;;;;;;25.45;15.15;;;9.60;99.90;;;;;;4947953;29;20379;-70
2023/04/19 02:02:20;;;;;;;18.80;13.98;;;9.50;99.90;;;;;;4951815;29;20035;-70
2023/04/19 02:04:46;;;;;;;22.15;14.07;;;9.50;99.90;;;;;;4946385;29;20050;-70
2023/04/19 02:07:11;;;;;;;20.33;14.23;;;9.40;99.90;;;;;;4948131;29;20042;-71
2023/04/19 02:09:37;;;;;;;20.92;14.88;;;9.40;99.90;;;;;;4956434;29;20030;-71
2023/04/19 02:12:04;;;;;;;24.73;14.65;;;9.60;99.90;;;;;;4951172;28;20024;-71
2023/04/19 02:14:30;;;;;;;20.77;13.85;;;9.50;99.90;;;;;;4961761;28;20039;-71
2023/04/19 02:16:56;;;;;;;21.65;14.80;;;9.50;99.90;;;;;;4954968;29;20051;-70
2023/04/19 02:19:22;;;;;;;23.58;15.60;;;9.40;99.90;;;;;;4956467;29;20193;-71
2023/04/19 02:21:48;;;;;;;21.00;14.68;;;9.40;99.90;;;;;;4954598;29;20480;-71
2023/04/19 02:24:14;;;;;;;25.40;16.20;;;9.40;99.90;;;;;;4955899;29;20090;-70
2023/04/19 02:26:40;;;;;;;22.08;15.13;;;9.40;99.90;;;;;;4955647;29;20023;-71
2023/04/19 02:29:06;;;;;;;21.63;14.45;;;9.40;99.90;;;;;;4945941;28;20035;-70
2023/04/19 02:31:31;;;;;;;21.60;15.27;;;9.30;99.90;;;;;;4955294;29;20110;-72
2023/04/19 02:33:57;;;;;;;24.60;15.00;;;9.20;99.90;;;;;;4955131;29;20035;-70
2023/04/19 02:36:23;;;;;;;22.67;14.48;;;9.40;99.90;;;;;;4955521;29;20035;-71
2023/04/19 02:38:48;;;;;;;20.45;14.77;;;9.30;99.90;;;;;;4955421;29;20039;-71
2023/04/19 02:41:14;;;;;;;24.27;15.77;;;9.30;99.90;;;;;;4955327;29;20711;-71
2023/04/19 02:43:40;;;;;;;21.50;14.75;;;9.20;99.90;;;;;;4955546;29;20086;-71
2023/04/19 02:46:06;;;;;;;21.23;14.75;;;9.30;99.90;;;;;;4954352;29;20085;-71
2023/04/19 02:48:31;;;;;;;20.90;13.85;;;9.30;99.90;;;;;;4949681;28;20037;-72
2023/04/19 02:50:57;;;;;;;22.15;14.40;;;9.20;99.90;;;;;;4954568;29;20031;-70
2023/04/19 02:53:22;;;;;;;22.02;14.95;;;9.30;99.90;;;;;;4955480;29;20031;-71
2023/04/19 02:55:48;;;;;;;22.70;14.48;;;9.20;99.90;;;;;;4954715;29;20118;-69
2023/04/19 02:58:14;;;;;;;23.52;15.32;;;9.20;99.90;;;;;;4955014;29;20042;-70
2023/04/19 03:00:40;;;;;;;20.95;14.77;;;9.30;99.90;;;;;;4954963;28;20031;-71
2023/04/19 03:03:06;;;;;;;21.77;15.40;;;9.20;99.90;;;;;;4953459;29;20600;-73
2023/04/19 03:05:31;;;;;;;24.75;15.32;;;9.20;99.90;;;;;;4948991;28;20035;-71
2023/04/19 03:07:57;;;;;;;24.67;15.77;;;9.20;99.90;;;;;;4958742;28;20039;-70
2023/04/19 03:10:23;;;;;;;26.25;16.30;;;9.20;99.90;;;;;;4955250;29;20027;-71
2023/04/19 03:12:48;;;;;;;21.70;15.27;;;9.20;99.90;;;;;;4953718;29;20102;-70
2023/04/19 03:15:14;;;;;;;23.33;17.05;;;9.20;99.90;;;;;;4955091;29;20031;-71
2023/04/19 03:17:40;;;;;;;24.60;15.98;;;9.20;99.90;;;;;;4954525;29;20457;-71
2023/04/19 03:20:10;;;;;;;25.08;15.65;;;9.20;99.90;;;;;;4954187;29;20038;-70
2023/04/19 03:22:36;;;;;;;;;;;9.20;99.90;;;;;;4950371;28;20110;-70
2023/04/19 03:25:05;;;;;;;23.77;15.30;;;9.20;99.90;;;;;;4954222;29;19989;-71
2023/04/19 03:27:34;;;;;;;24.40;17.00;;;9.10;99.90;;;;;;4954563;29;20043;-71
2023/04/19 03:30:00;;;;;;;22.95;16.48;;;9.00;99.90;;;;;;4953681;29;20027;-70
2023/04/19 03:32:26;;;;;;;24.75;16.00;;;9.00;99.90;;;;;;4954263;29;20079;-71
2023/04/19 03:34:51;;;;;;;23.10;16.40;;;9.00;99.90;;;;;;4954031;29;20460;-70
2023/04/19 03:37:17;;;;;;;24.05;16.30;;;9.00;99.90;;;;;;4953989;29;20035;-70
2023/04/19 03:39:42;;;;;;;27.52;17.60;;;9.00;99.90;;;;;;4949929;28;20058;-70
2023/04/19 03:42:08;;;;;;;25.35;17.52;;;9.00;99.90;;;;;;4953204;29;20035;-71
2023/04/19 03:44:33;;;;;;;22.83;16.25;;;8.90;99.90;;;;;;4954750;29;20515;-71
2023/04/19 03:46:59;;;;;;;24.73;16.42;;;9.00;99.90;;;;;;4953266;29;20054;-71
2023/04/19 03:49:25;;;;;;;26.60;17.83;;;9.00;99.90;;;;;;4954598;29;20028;-71
2023/04/19 03:51:50;;;;;;;21.25;16.20;;;9.00;99.90;;;;;;4953807;29;20063;-69
2023/04/19 03:54:16;;;;;;;21.05;15.77;;;8.90;99.90;;;;;;4954767;29;20038;-72
2023/04/19 03:56:42;;;;;;;28.73;18.17;;;8.90;99.90;;;;;;4948321;28;20039;-70
2023/04/19 03:59:08;;;;;;;25.00;17.05;;;9.00;99.90;;;;;;4953422;29;20023;-70
2023/04/19 04:01:34;;;;;;;26.83;17.30;;;8.90;99.90;;;;;;4953681;29;20070;-70
2023/04/19 04:04:00;;;;;;;26.20;17.25;;;8.90;99.90;;;;;;4952997;29;20142;-70
2023/04/19 04:06:25;;;;;;;26.60;18.02;;;8.80;99.90;;;;;;4953442;29;20469;-70
2023/04/19 04:08:51;;;;;;;23.58;17.27;;;8.80;99.90;;;;;;4953278;29;20604;-70
2023/04/19 04:11:17;;;;;;;28.10;17.33;;;8.80;99.90;;;;;;4952889;28;20032;-70
2023/04/19 04:13:42;;;;;;;26.17;17.85;;;8.70;99.90;;;;;;4949212;28;20069;-70
2023/04/19 04:16:08;;;;;;;28.45;18.05;;;8.70;99.90;;;;;;4952545;29;20343;-70
2023/04/19 04:18:34;;;;;;;27.35;18.63;;;8.60;99.90;;;;;;4953778;29;20472;-71
2023/04/19 04:20:59;;;;;;;30.33;19.25;;;8.60;99.90;;;;;;4952587;29;20038;-70
2023/04/19 04:23:25;;;;;;;29.48;19.75;;;8.60;99.90;;;;;;4954076;29;20023;-71
2023/04/19 04:26:00;;;;;;;28.10;19.08;;;8.50;99.90;;;;;;4952758;29;20039;-69
2023/04/19 04:28:29;;;;;;;28.90;18.85;;;8.50;99.90;;;;;;4954118;29;20027;-71
2023/04/19 04:30:56;;;;;;;29.77;18.83;;;8.50;99.90;;;;;;4947780;28;20384;-70
2023/04/19 04:33:25;;;;;;;27.85;18.38;;;8.60;99.90;;;;;;4953673;29;20027;-71
2023/04/19 04:35:52;;;;;;;29.08;19.55;;;8.60;99.90;;;;;;4953032;29;20440;-69
2023/04/19 04:38:20;;;;;;;31.48;18.60;;;8.50;99.90;;;;;;4953018;29;20432;-70
2023/04/19 04:40:53;;;;;;;26.10;18.70;;;8.50;99.90;;;;;;4951741;29;20385;-70
2023/04/19 04:43:23;;;;;;;28.17;17.63;;;8.50;99.90;;;;;;4949538;29;20035;-70
2023/04/19 04:45:49;;;;;;;27.50;19.25;;;8.40;99.90;;;;;;4943447;28;20050;-69
2023/04/19 04:48:15;;;;;;;29.73;19.65;;;8.30;99.90;;;;;;4945570;28;20036;-70
2023/04/19 04:50:41;;;;;;;33.20;19.60;;;8.30;99.90;;;;;;4949473;29;20102;-70
2023/04/19 04:53:06;;;;;;;30.90;19.67;;;8.30;99.90;;;;;;4945869;29;20020;-71
2023/04/19 04:55:33;;;;;;;27.65;19.58;;;8.30;99.90;;;;;;4950299;29;20062;-72
2023/04/19 04:57:58;;;;;;;26.45;19.10;;;8.40;99.90;;;;;;4943728;29;20122;-69
2023/04/19 05:00:24;;;;;;;27.30;19.30;;;8.40;99.90;;;;;;4947524;29;20111;-70
2023/04/19 05:02:50;;;;;;;31.85;20.02;;;8.50;99.90;;;;;;4945271;28;20475;-70
2023/04/19 05:05:16;;;;;;;27.50;19.67;;;8.50;99.90;;;;;;4948952;29;20024;-72
2023/04/19 05:07:41;;;;;;;27.15;18.98;;;8.60;99.90;;;;;;4947021;29;20417;-70
2023/04/19 05:10:07;;;;;;;28.00;18.33;;;8.70;99.90;;;;;;4949822;29;20054;-70
2023/04/19 05:12:33;;;;;;;24.35;17.95;;;8.70;99.90;;;;;;4947213;29;20035;-70
2023/04/19 05:14:59;;;;;;;28.45;18.25;;;8.70;99.90;;;;;;4948413;29;20035;-71
2023/04/19 05:17:24;;;;;;;26.75;18.48;;;8.70;99.90;;;;;;4946624;29;20054;-70
2023/04/19 05:19:50;;;;;;;26.00;17.45;;;8.70;99.90;;;;;;4945714;28;20416;-70
2023/04/19 05:22:15;;;;;;;29.75;18.63;;;8.70;99.90;;;;;;4947188;28;20094;-71
2023/04/19 05:24:41;;;;;;;25.67;18.00;;;8.80;99.90;;;;;;4952212;29;20471;-70
2023/04/19 05:27:08;;;;;;;25.90;18.50;;;8.70;99.90;;;;;;4948821;29;20032;-70
2023/04/19 05:29:33;;;;;;;24.98;17.42;;;8.60;99.90;;;;;;4952242;29;20039;-70
2023/04/19 05:31:59;;;;;;;24.73;18.17;;;8.70;99.90;;;;;;4948621;28;20035;-70
2023/04/19 05:34:25;;;;;;;25.88;17.90;;;8.70;99.90;;;;;;4952253;29;20032;-70
2023/04/19 05:36:50;;;;;;;27.17;18.80;;;8.70;99.90;;;;;;4953360;29;20038;-70
2023/04/19 05:39:16;;;;;;;28.10;19.00;;;8.70;99.90;;;;;;4956442;29;20042;-72
2023/04/19 05:41:42;;;;;;;25.80;17.45;;;8.70;99.90;;;;;;4956350;29;20035;-72
2023/04/19 05:44:07;;;;;;;26.58;17.92;;;8.80;99.90;;;;;;4939150;29;20031;-73
2023/04/19 05:46:33;;;;;;;30.75;18.42;;;8.80;99.90;;;;;;4959631;29;20023;-74
2023/04/19 05:48:59;;;;;;;25.40;17.48;;;8.90;99.90;;;;;;4961201;28;20035;-71
2023/04/19 05:51:24;;;;;;;28.25;18.20;;;8.80;99.90;;;;;;4969437;29;20023;-75
2023/04/19 05:53:50;;;;;;;24.30;18.10;;;8.80;99.90;;;;;;4962322;29;20032;-75
2023/04/19 05:56:16;;;;;;;29.70;19.98;;;8.90;99.90;;;;;;4957871;28;20046;-73
2023/04/19 05:58:41;;;;;;;28.58;19.17;;;9.00;99.90;;;;;;4950449;29;20035;-76
2023/04/19 06:01:07;;;;;;;31.02;17.75;;;9.00;99.90;;;;;;4944746;28;20074;-78
2023/04/19 06:03:33;;;;;;;25.55;17.27;;;9.00;99.90;;;;;;4956761;29;20123;-75
2023/04/19 06:05:59;;;;;;;25.35;17.48;;;9.00;99.90;;;;;;4956560;29;20070;-80
2023/04/19 06:08:24;;;;;;;23.95;16.17;;;9.10;99.90;;;;;;4956577;29;20035;-76
2023/04/19 06:10:50;;;;;;;25.65;16.73;;;9.10;99.90;;;;;;4955630;29;20030;-77
2023/04/19 06:13:16;;;;;;;21.08;15.52;;;9.10;99.90;;;;;;4954737;29;20098;-77
2023/04/19 06:15:41;;;;;;;25.77;16.67;;;9.10;99.90;;;;;;4960976;29;20032;-78
2023/04/19 06:18:10;;;;;;;25.10;17.08;;;9.20;99.90;;;;;;4953934;29;20392;-78
2023/04/19 06:20:36;;;;;;;24.50;16.80;;;9.20;99.90;;;;;;4951602;29;20059;-77
2023/04/19 06:23:02;;;;;;;25.30;17.02;;;9.30;99.90;;;;;;4948663;29;20023;-78
2023/04/19 06:25:28;;;;;;;23.80;17.38;;;9.30;99.90;;;;;;4954771;29;20034;-79
2023/04/19 06:27:53;;;;;;;26.23;15.95;;;9.40;99.90;;;;;;4951952;29;20102;-76
2023/04/19 06:30:19;;;;;;;21.70;15.93;;;9.50;99.90;;;;;;4944258;29;20047;-79
2023/04/19 06:32:44;;;;;;;27.75;15.93;;;9.50;99.90;;;;;;4953645;29;20798;-79
2023/04/19 06:35:10;;;;;;;26.75;15.63;;;9.60;99.90;;;;;;4954265;28;20078;-76
2023/04/19 06:37:36;;;;;;;20.88;14.43;;;9.60;99.90;;;;;;4953852;29;20364;-79
2023/04/19 06:40:03;;;;;;;19.70;14.52;;;9.70;99.90;;;;;;4948532;29;20027;-78
2023/04/19 06:42:29;;;;;;;18.48;14.70;;;9.70;99.90;;;;;;4955037;29;20059;-79
2023/04/19 06:44:56;;;;;;;20.85;15.00;;;9.70;99.90;;;;;;4954684;29;20063;-77
2023/04/19 06:47:21;;;;;;;22.52;15.77;;;9.80;99.90;;;;;;4954769;29;20110;-79
2023/04/19 06:49:47;;;;;;;19.33;15.38;;;9.80;99.90;;;;;;4958324;29;20066;-78
2023/04/19 06:52:13;;;;;;;22.98;15.23;;;9.70;99.90;;;;;;4956569;29;20644;-78
2023/04/19 06:54:38;;;;;;;19.75;14.80;;;9.70;99.90;;;;;;4946675;28;20039;-78
2023/04/19 06:57:04;;;;;;;23.85;16.10;;;9.80;99.90;;;;;;4947903;29;20500;-79
2023/04/19 06:59:31;;;;;;;20.42;14.57;;;9.90;99.90;;;;;;4952059;29;20031;-79
2023/04/19 07:01:57;;;;;;;21.83;14.80;;;10.00;99.90;;;;;;4951303;29;20023;-78
2023/04/19 07:04:23;;;;;;;19.38;14.23;;;10.00;99.90;;;;;;4953242;29;20489;-79
2023/04/19 07:06:49;;;;;;;18.63;14.30;;;10.10;99.90;;;;;;4949521;29;20106;-78
2023/04/19 07:09:14;;;;;;;17.92;13.65;;;10.40;99.90;;;;;;4953943;29;20027;-79
2023/04/19 07:11:40;;;;;;;20.02;14.80;;;10.50;99.90;;;;;;4952565;29;20027;-78
2023/04/19 07:14:06;;;;;;;21.40;14.85;;;10.60;99.90;;;;;;4948767;29;20430;-80
2023/04/19 07:16:31;;;;;;;20.38;14.65;;;10.70;99.90;;;;;;4949511;29;20027;-79
2023/04/19 07:18:57;;;;;;;20.83;14.85;;;10.60;99.90;;;;;;4953429;29;20093;-80
2023/04/19 07:21:31;;;;;;;21.60;14.60;;;10.60;99.90;;;;;;4951045;29;20070;-79
2023/04/19 07:23:57;;;;;;;20.08;14.18;;;10.70;99.90;;;;;;4946923;29;20050;-77
2023/04/19 07:26:22;;;;;;;23.02;14.77;;;10.70;99.90;;;;;;4949742;29;20057;-78
2023/04/19 07:28:49;;;;;;;21.30;14.70;;;10.90;99.90;;;;;;4953399;29;20444;-78
2023/04/19 07:31:16;;;;;;;19.75;14.10;;;11.00;99.90;;;;;;4953551;29;20019;-77
2023/04/19 07:33:42;;;;;;;21.50;15.27;;;11.10;99.90;;;;;;4952459;29;20035;-77
2023/04/19 07:36:08;;;;;;;16.58;12.82;;;11.30;99.90;;;;;;4954047;29;20031;-80
2023/04/19 07:38:34;;;;;;;20.33;13.20;;;11.30;99.90;;;;;;4955029;29;20406;-78
2023/04/19 07:40:59;;;;;;;21.20;14.45;;;11.40;99.90;;;;;;4951219;29;20035;-76
2023/04/19 07:43:25;;;;;;;19.10;13.82;;;11.60;99.90;;;;;;4953296;29;20468;-78
2023/04/19 07:45:51;;;;;;;21.48;14.60;;;11.60;99.90;;;;;;4954249;28;20038;-74
2023/04/19 07:48:17;;;;;;;21.95;15.38;;;11.80;99.90;;;;;;4952401;29;20114;-78
2023/04/19 07:50:43;;;;;;;20.70;13.70;;;11.90;99.90;;;;;;4952600;29;20110;-76
2023/04/19 07:53:09;;;;;;;20.45;13.77;;;11.90;99.90;;;;;;4930909;29;20130;-78
2023/04/19 07:55:34;;;;;;;18.60;12.52;;;12.00;99.90;;;;;;4951856;29;20035;-80
2023/04/19 07:58:00;;;;;;;18.08;12.60;;;12.00;99.90;;;;;;4947629;29;20090;-80
2023/04/19 08:00:28;;;;;;;17.30;12.05;;;12.10;99.90;;;;;;4949509;29;20031;-80
2023/04/19 08:02:55;;;;;;;17.17;12.93;;;12.30;99.90;;;;;;4953750;29;20138;-77
2023/04/19 08:05:21;;;;;;;16.30;12.55;;;12.50;99.90;;;;;;4951554;29;20487;-80
2023/04/19 08:07:47;;;;;;;15.80;11.60;;;12.50;99.90;;;;;;4953943;29;20035;-79
2023/04/19 08:10:13;;;;;;;16.83;12.50;;;12.40;99.90;;;;;;4952988;29;20031;-78
2023/04/19 08:12:40;;;;;;;17.10;11.93;;;12.30;99.90;;;;;;4952894;29;20033;-80
2023/04/19 08:15:07;;;;;;;19.90;13.30;;;12.30;99.90;;;;;;4953268;29;20066;-78
2023/04/19 08:17:33;;;;;;;18.10;12.10;;;12.40;99.90;;;;;;4952956;29;20480;-79
2023/04/19 08:19:59;;;;;;;16.10;12.35;;;12.60;99.90;;;;;;4953095;29;20063;-78
2023/04/19 08:22:25;;;;;;;15.13;12.55;;;12.90;99.90;;;;;;4952788;29;20077;-77
2023/04/19 08:24:52;;;;;;;16.05;12.40;;;13.20;99.90;;;;;;4953939;29;20027;-75
2023/04/19 08:27:18;;;;;;;12.80;10.43;;;13.40;99.90;;;;;;4953147;29;20046;-79
2023/04/19 08:29:44;;;;;;;14.90;10.52;;;13.40;99.90;;;;;;4952907;29;20027;-78
2023/04/19 08:32:11;;;;;;;13.55;8.95;;;13.60;99.90;;;;;;4952362;29;20023;-79
2023/04/19 08:34:38;;;;;;;14.80;9.20;;;13.70;99.90;;;;;;4953723;29;20027;-80
2023/04/19 08:37:06;;;;;;;14.88;9.07;;;13.50;99.90;;;;;;4935104;29;20469;-80
2023/04/19 08:39:32;;;;;;;13.55;9.05;;;13.30;99.90;;;;;;4953148;29;20384;-79
2023/04/19 08:42:07;;;;;;;12.13;9.05;;;13.10;99.90;;;;;;4952169;29;20033;-79
2023/04/19 08:44:34;;;;;;;11.60;9.20;;;13.00;99.90;;;;;;4953105;29;20023;-80
2023/04/19 08:47:00;;;;;;;12.43;8.75;;;12.90;99.90;;;;;;4951942;29;20023;-80
2023/04/19 08:49:27;;;;;;;13.27;9.88;;;12.90;99.90;;;;;;4953271;29;20035;-80
2023/04/19 08:51:54;;;;;;;12.93;9.85;;;13.10;99.90;;;;;;4954666;29;20027;-76
2023/04/19 08:54:21;;;;;;;11.20;9.27;;;12.90;99.90;;;;;;4952693;28;20030;-78
2023/04/19 08:56:46;;;;;;;10.25;8.10;;;12.90;99.90;;;;;;4952677;29;20062;-79
2023/04/19 08:59:13;;;;;;;11.70;9.00;;;12.90;99.90;;;;;;4952547;29;20774;-80
2023/04/19 09:01:39;;;;;;;12.38;8.93;;;13.00;99.90;;;;;;4952550;29;20035;-79
2023/04/19 09:04:06;;;;;;;12.00;8.88;;;13.00;99.90;;;;;;4951823;29;20055;-78
2023/04/19 09:06:38;;;;;;;15.43;8.93;;;13.10;99.90;;;;;;4952426;29;20480;-79
2023/04/19 09:09:24;;;;;;;14.63;9.52;;;13.00;99.90;;;;;;4952438;29;20066;-78
2023/04/19 09:11:50;;;;;;;13.20;8.48;;;12.90;99.90;;;;;;4952198;29;20066;-79
2023/04/19 09:14:17;;;;;;;13.88;8.90;;;13.00;99.90;;;;;;4950671;29;20059;-79
2023/04/19 09:16:44;;;;;;;12.15;8.82;;;13.30;99.90;;;;;;4953145;29;20110;-79
2023/04/19 09:19:13;;;;;;;12.52;9.00;;;13.60;99.90;;;;;;4951630;29;20037;-79
2023/04/19 09:21:39;;;;;;;14.90;9.02;;;14.00;99.90;;;;;;4952409;29;20019;-78
2023/04/19 09:24:05;;;;;;;15.77;10.55;;;14.10;99.90;;;;;;4952164;29;20130;-78
2023/04/19 09:26:31;;;;;;;12.32;9.82;;;13.90;99.90;;;;;;4952705;28;20500;-78
2023/04/19 09:28:59;;;;;;;14.70;9.82;;;13.70;99.90;;;;;;4952518;29;20124;-74
2023/04/19 09:31:27;;;;;;;12.68;9.75;;;13.80;99.90;;;;;;4952145;29;20445;-77
2023/04/19 09:33:53;;;;;;;16.35;10.75;;;13.70;99.90;;;;;;4952794;29;20027;-80
2023/04/19 09:36:30;;;;;;;13.93;10.30;;;13.40;99.90;;;;;;4951355;29;20883;-80
2023/04/19 09:38:56;;;;;;;17.35;10.85;;;13.10;99.90;;;;;;4952311;29;20086;-79
2023/04/19 09:41:23;;;;;;;29.45;10.95;;;13.00;99.90;;;;;;4952041;29;20028;-80
2023/04/19 09:43:49;;;;;;;13.82;10.38;;;13.00;99.90;;;;;;4952628;29;20043;-80
2023/04/19 09:46:45;;;;;;;17.27;10.75;;;13.20;99.90;;;;;;4951673;29;20635;-79
2023/04/19 09:49:19;;;;;;;19.35;10.73;;;13.60;99.90;;;;;;4950829;29;20039;-79
2023/04/19 09:51:55;;;;;;;11.70;9.43;;;14.00;99.90;;;;;;4953896;29;20027;-79
2023/04/19 09:54:28;;;;;;;15.05;9.93;;;14.50;99.90;;;;;;4954687;29;20038;-81
2023/04/19 09:56:54;;;;;;;12.25;9.40;;;14.60;99.90;;;;;;4935946;29;20058;-75
2023/04/19 09:59:20;;;;;;;14.50;10.73;;;14.50;99.90;;;;;;4952606;29;20457;-79
2023/04/19 10:01:55;;;;;;;14.13;11.45;;;14.60;99.90;;;;;;4952290;29;20083;-78
2023/04/19 10:04:21;;;;;;;13.32;10.65;;;14.70;99.90;;;;;;4952205;29;20063;-80
2023/04/19 10:06:51;;;;;;;12.52;10.05;;;14.60;99.90;;;;;;4952253;29;21188;-81
2023/04/19 10:09:18;;;;;;;12.82;9.48;;;14.60;99.90;;;;;;4952097;28;20154;-82
2023/04/19 10:11:51;;;;;;;13.07;9.93;;;14.70;99.90;;;;;;4955440;29;20118;-78
2023/04/19 10:14:26;;;;;;;14.55;9.80;;;14.90;99.90;;;;;;4953963;29;20027;-79
2023/04/19 10:16:52;;;;;;;14.70;10.50;;;15.10;99.90;;;;;;4955525;29;20039;-80
2023/04/19 10:19:20;;;;;;;12.07;9.73;;;15.10;99.90;;;;;;4954898;29;20031;-80
2023/04/19 10:21:47;;;;;;;12.20;8.15;;;14.80;99.90;;;;;;4954908;29;20101;-81
2023/04/19 10:24:14;;;;;;;11.55;8.80;;;14.60;99.90;;;;;;4955326;29;20048;-79
2023/04/19 10:27:02;;;;;;;14.30;8.63;;;14.70;99.90;;;;;;4955071;29;20030;-80
2023/04/19 10:29:57;;;;;;;10.57;8.25;;;14.70;99.90;;;;;;4955802;29;20063;-79
2023/04/19 10:32:27;;;;;;;12.88;8.27;;;14.60;99.90;;;;;;4955358;29;20029;-77
2023/04/19 10:34:55;;;;;;;11.68;7.90;;;14.50;99.90;;;;;;4955303;29;20386;-78
2023/04/19 10:37:23;;;;;;;10.73;8.13;;;14.40;99.90;;;;;;4954858;29;20059;-79
2023/04/19 10:39:50;;;;;;;11.40;8.23;;;14.40;99.90;;;;;;4955941;29;20098;-78
2023/04/19 10:42:16;;;;;;;12.88;8.90;;;14.40;99.90;;;;;;4954568;29;20027;-79
2023/04/19 10:44:41;;;;;;;13.90;10.25;;;14.10;99.90;;;;;;4955899;29;20126;-78
2023/04/19 10:47:07;;;;;;;13.77;8.82;;;13.90;99.90;;;;;;4954054;29;20034;-79
2023/04/19 10:49:45;;;;;;;13.02;10.65;;;13.60;99.90;;;;;;4955194;29;20031;-80
2023/04/19 10:52:28;;;;;;;13.43;10.63;;;13.30;99.90;;;;;;4954001;29;20122;-80
2023/04/19 10:54:56;;;;;;;13.55;9.93;;;13.10;99.90;;;;;;4948131;29;20027;-76
2023/04/19 10:57:24;;;;;;;12.88;9.55;;;13.00;99.90;;;;;;4954596;29;20059;-80
2023/04/19 11:00:21;;;;;;;11.82;9.27;;;13.10;99.90;;;;;;4955294;29;20082;-79
2023/04/19 11:02:47;;;;;;;17.25;10.38;;;13.20;99.90;;;;;;4944730;29;20129;-78
2023/04/19 11:05:13;;;;;;;15.05;11.18;;;13.30;99.90;;;;;;4955706;29;20102;-78
2023/04/19 11:07:40;;;;;;;13.93;9.75;;;13.30;99.90;;;;;;4956036;29;20023;-78
2023/04/19 11:10:06;;;;;;;12.05;9.70;;;13.40;99.90;;;;;;4954460;29;20030;-76
2023/04/19 11:12:33;;;;;;;15.18;9.68;;;13.50;99.90;;;;;;4954922;29;20491;-78
2023/04/19 11:14:59;;;;;;;12.23;10.13;;;13.60;99.90;;;;;;4954658;29;20039;-77
2023/04/19 11:17:30;;;;;;;16.00;10.40;;;13.70;99.90;;;;;;4954717;29;20535;-78
2023/04/19 11:20:00;;;;;;;15.20;9.55;;;13.60;99.90;;;;;;4953849;28;20028;-79
2023/04/19 11:22:35;;;;;;;12.35;9.55;;;13.30;99.90;;;;;;4953785;29;20020;-79
2023/04/19 11:25:11;;;;;;;18.70;10.75;;;13.10;99.90;;;;;;4936215;29;20033;-79
2023/04/19 11:27:41;;;;;;;13.93;9.80;;;12.80;99.90;;;;;;4952891;29;20090;-82
2023/04/19 11:30:12;;;;;;;16.30;11.65;;;12.60;99.90;;;;;;4952864;29;20055;-79
2023/04/19 11:33:02;;;;;;;16.20;10.73;;;12.40;99.90;;;;;;4959027;29;20428;-78
2023/04/19 11:35:29;;;;;;;14.55;10.50;;;12.20;99.90;;;;;;4956682;29;20038;-79
2023/04/19 11:37:57;;;;;;;15.23;10.48;;;12.00;99.90;;;;;;4949024;28;20445;-74
2023/04/19 11:40:25;;;;;;;16.73;11.35;;;11.90;99.90;;;;;;4953228;29;20031;-78
2023/04/19 11:43:01;;;;;;;15.27;10.82;;;11.90;99.90;;;;;;4954760;29;20023;-80
2023/04/19 11:45:32;;;;;;;18.30;12.07;;;11.80;99.90;;;;;;4955078;29;20062;-82
2023/04/19 11:47:58;;;;;;;17.33;11.93;;;11.60;99.90;;;;;;4953461;29;20035;-79
2023/04/19 11:50:32;;;;;;;19.13;12.73;;;11.50;99.90;;;;;;4953675;29;20392;-77
2023/04/19 11:52:59;;;;;;;18.90;11.85;;;11.40;99.90;;;;;;4953018;29;20035;-77
2023/04/19 11:55:25;;;;;;;16.75;12.27;;;11.30;99.90;;;;;;4953689;29;20035;-80
2023/04/19 11:57:51;;;;;;;19.30;13.00;;;11.30;99.90;;;;;;4956860;28;20058;-80
2023/04/19 12:00:26;;;;;;;17.83;13.68;;;11.10;99.90;;;;;;4954208;28;20244;-80
2023/04/19 12:02:52;;;;;;;20.75;14.63;;;11.10;99.90;;;;;;4952234;29;20051;-81
2023/04/19 12:05:18;;;;;;;22.88;15.48;;;10.90;99.90;;;;;;4948781;29;20027;-79
2023/04/19 12:08:05;;;;;;;21.83;15.98;;;10.90;99.90;;;;;;4955460;29;20027;-78
2023/04/19 12:10:31;;;;;;;24.17;17.38;;;10.70;99.90;;;;;;4948268;29;20026;-81
2023/04/19 12:12:57;;;;;;;26.70;17.90;;;10.50;99.90;;;;;;4957080;29;20035;-75
2023/04/19 12:15:23;;;;;;;27.83;18.58;;;10.30;99.90;;;;;;4961759;29;20043;-75
2023/04/19 12:18:00;;;;;;;26.75;19.27;;;10.20;99.90;;;;;;4964455;29;20031;-79
2023/04/19 12:20:37;;;;;;;30.42;19.20;;;10.00;99.90;;;;;;4958422;29;20030;-82
2023/04/19 12:23:03;;;;;;;26.65;18.85;;;10.00;99.90;;;;;;4950404;29;20027;-79
2023/04/19 12:25:31;;;;;;;27.33;19.00;;;9.90;99.90;;;;;;4952479;29;20197;-80
2023/04/19 12:27:57;;;;;;;29.52;20.52;;;9.80;99.90;;;;;;4953995;28;20102;-72
2023/04/19 12:30:23;;;;;;;26.65;18.95;;;9.80;99.90;;;;;;4935588;28;20040;-77
2023/04/19 12:32:50;;;;;;;29.23;21.20;;;9.60;99.90;;;;;;4951882;28;20082;-79